Time;durP1;ratioP1;P1;durP2;ratioP2;P2;SDS_P1;SDS_P2;PMS_P1;PMS_P2;Temp;Humidity;BMP_temperature;BMP_pressure;BME280_temperature;BME280_humidity;BME280_pressure;Samples;Min_cycle;Max_cycle;Signal;HPM_P1;HPM_P2
2023/02/24 00:02:04;;;;;;;7.13;5.57;;;2.20;99.90;;;;;;4960640;28;20492;-66
2023/02/24 00:04:38;;;;;;;9.27;5.55;;;2.20;99.90;;;;;;4965020;28;20096;-65
2023/02/24 00:07:11;;;;;;;6.93;5.50;;;2.30;99.90;;;;;;4962683;28;20055;-65
2023/02/24 00:09:38;;;;;;;6.82;5.18;;;2.20;99.90;;;;;;4959166;28;20137;-66
2023/02/24 00:12:08;;;;;;;7.68;5.43;;;2.20;99.90;;;;;;4964252;28;20053;-66
2023/02/24 00:14:38;;;;;;;8.07;5.93;;;2.20;99.90;;;;;;4965031;28;20667;-65
2023/02/24 00:17:08;;;;;;;4.78;4.28;;;2.20;99.90;;;;;;4962943;28;20047;-65
2023/02/24 00:19:36;;;;;;;5.70;4.60;;;2.20;99.90;;;;;;4964425;28;20776;-65
2023/02/24 00:22:05;;;;;;;6.95;5.22;;;2.20;99.90;;;;;;4964122;28;20046;-65
2023/02/24 00:24:32;;;;;;;8.82;5.88;;;2.20;99.90;;;;;;4965595;28;20078;-65
2023/02/24 00:27:01;;;;;;;5.30;4.80;;;2.20;99.90;;;;;;4962415;28;20053;-64
2023/02/24 00:29:31;;;;;;;7.68;5.43;;;2.20;99.90;;;;;;4963377;28;20060;-65
2023/02/24 00:31:58;;;;;;;6.07;5.07;;;2.20;99.90;;;;;;4960894;28;20043;-65
2023/02/24 00:34:30;;;;;;;6.32;5.22;;;2.20;99.90;;;;;;4965614;28;20559;-65
2023/02/24 00:36:58;;;;;;;6.43;5.28;;;2.20;99.90;;;;;;4963573;28;20050;-67
2023/02/24 00:39:34;;;;;;;6.78;4.85;;;2.20;99.90;;;;;;4963089;28;20061;-65
2023/02/24 00:42:03;;;;;;;6.95;5.00;;;2.20;99.90;;;;;;4964493;28;20059;-65
2023/02/24 00:44:31;;;;;;;8.23;5.80;;;2.20;99.90;;;;;;4964106;28;20050;-64
2023/02/24 00:47:00;;;;;;;7.22;5.47;;;2.20;99.90;;;;;;4963138;28;20073;-65
2023/02/24 00:49:28;;;;;;;6.15;5.15;;;2.20;99.90;;;;;;4961371;28;20138;-66
2023/02/24 00:51:56;;;;;;;5.70;4.30;;;2.20;99.90;;;;;;4962711;28;20043;-66
2023/02/24 00:54:26;;;;;;;7.93;5.95;;;2.20;99.90;;;;;;4946606;28;20105;-65
2023/02/24 00:56:55;;;;;;;6.43;4.78;;;2.20;99.90;;;;;;4962636;28;20102;-65
2023/02/24 00:59:22;;;;;;;6.80;5.13;;;2.20;99.90;;;;;;4962753;28;20046;-65
2023/02/24 01:01:50;;;;;;;5.65;4.93;;;2.20;99.90;;;;;;4963923;28;20758;-66
2023/02/24 01:04:18;;;;;;;6.03;4.18;;;2.20;99.90;;;;;;4965716;28;20053;-67
2023/02/24 01:06:58;;;;;;;5.97;4.82;;;2.20;99.90;;;;;;4964483;28;20464;-70
2023/02/24 01:09:28;;;;;;;7.40;6.13;;;2.20;99.90;;;;;;4965833;28;20055;-65
2023/02/24 01:14:46;;;;;;;6.05;5.05;;;2.20;99.90;;;;;;4964333;28;20047;-65
2023/02/24 01:17:15;;;;;;;8.10;5.68;;;2.20;99.90;;;;;;4964585;28;20097;-66
2023/02/24 01:19:43;;;;;;;7.18;5.53;;;2.20;99.90;;;;;;4965370;28;20421;-66
2023/02/24 01:22:13;;;;;;;5.05;4.55;;;2.20;99.90;;;;;;4967909;28;20133;-64
2023/02/24 01:24:42;;;;;;;7.68;5.13;;;2.20;99.90;;;;;;4967601;28;20046;-65
2023/02/24 01:27:12;;;;;;;7.15;6.38;;;2.20;99.90;;;;;;4965343;28;20505;-65
2023/02/24 01:29:39;;;;;;;7.05;5.88;;;2.20;99.90;;;;;;4963532;28;20138;-65
2023/02/24 01:32:16;;;;;;;6.55;5.65;;;2.20;99.90;;;;;;4965127;28;20548;-66
2023/02/24 01:34:44;;;;;;;7.35;5.30;;;2.20;99.90;;;;;;4967504;28;20054;-65
2023/02/24 01:37:15;;;;;;;8.07;5.53;;;2.20;99.90;;;;;;4964989;28;20104;-65
2023/02/24 01:39:44;;;;;;;7.18;5.72;;;2.20;99.90;;;;;;4963494;28;20528;-66
2023/02/24 01:42:18;;;;;;;5.60;4.95;;;2.20;99.90;;;;;;4968690;28;20042;-66
2023/02/24 01:44:45;;;;;;;6.97;5.43;;;2.20;99.90;;;;;;4963039;28;20070;-65
2023/02/24 01:47:16;;;;;;;6.82;4.70;;;2.20;99.90;;;;;;4959995;28;20055;-65
2023/02/24 01:49:46;;;;;;;6.82;5.72;;;2.20;99.90;;;;;;4965187;28;20054;-65
2023/02/24 01:52:18;;;;;;;8.73;5.82;;;2.20;99.90;;;;;;4962657;28;20038;-65
2023/02/24 01:55:00;;;;;;;8.00;5.90;;;2.20;99.90;;;;;;4964261;28;20484;-65
2023/02/24 01:57:30;;;;;;;6.10;5.50;;;2.20;99.90;;;;;;4965000;28;20050;-65
2023/02/24 02:00:09;;;;;;;6.57;5.25;;;2.20;99.90;;;;;;4965208;28;20058;-65
2023/02/24 02:02:43;;;;;;;7.13;6.43;;;2.20;99.90;;;;;;4963928;28;20149;-65
2023/02/24 02:05:10;;;;;;;;;;;2.30;99.90;;;;;;4980047;28;20477;-66
2023/02/24 02:07:39;;;;;;;7.75;6.30;;;2.20;99.90;;;;;;4963146;28;19981;-64
2023/02/24 02:10:08;;;;;;;7.55;6.63;;;2.20;99.90;;;;;;4966440;28;20779;-65
2023/02/24 02:12:42;;;;;;;8.75;7.18;;;2.20;99.90;;;;;;4965014;28;20637;-65
2023/02/24 02:15:18;;;;;;;10.15;7.03;;;2.20;99.90;;;;;;4963025;28;20057;-66
2023/02/24 02:18:16;;;;;;;9.40;6.93;;;2.20;99.90;;;;;;4961969;28;20105;-65
2023/02/24 02:21:07;;;;;;;7.65;6.70;;;2.20;99.90;;;;;;4964812;28;20059;-66
2023/02/24 02:23:47;;;;;;;8.13;6.28;;;2.20;99.90;;;;;;4965644;28;20125;-65
2023/02/24 02:26:34;;;;;;;8.20;6.85;;;2.30;99.90;;;;;;4964683;28;20050;-65
2023/02/24 02:29:29;;;;;;;9.05;6.40;;;2.20;99.90;;;;;;4966637;28;20142;-66
2023/02/24 02:32:30;;;;;;;8.43;6.63;;;2.20;99.90;;;;;;4962549;28;20552;-65
2023/02/24 02:35:07;;;;;;;7.45;5.85;;;2.20;99.90;;;;;;4962356;28;20065;-65
2023/02/24 02:37:39;;;;;;;7.80;6.22;;;2.30;99.90;;;;;;4963462;28;20051;-66
2023/02/24 02:40:20;;;;;;;9.05;7.18;;;2.20;99.90;;;;;;4965083;28;20102;-64
2023/02/24 02:42:56;;;;;;;11.00;7.00;;;2.20;99.90;;;;;;4964567;28;20850;-65
2023/02/24 02:45:48;;;;;;;7.55;6.07;;;2.20;99.90;;;;;;4970911;28;20071;-65
2023/02/24 02:48:18;;;;;;;8.45;6.75;;;2.20;99.90;;;;;;4965255;28;20051;-65
2023/02/24 02:51:03;;;;;;;8.93;6.82;;;2.20;99.90;;;;;;4958635;28;20113;-66
2023/02/24 02:53:58;;;;;;;11.38;9.18;;;2.20;99.90;;;;;;4950639;28;20053;-66
2023/02/24 02:56:41;;;;;;;12.82;9.32;;;2.30;99.90;;;;;;4977667;28;20667;-65
2023/02/24 02:59:11;;;;;;;9.98;8.27;;;2.30;99.90;;;;;;4964678;28;20436;-65
2023/02/24 03:01:40;;;;;;;;;;;2.30;99.90;;;;;;4965299;28;20051;-65
2023/02/24 03:04:10;;;;;;;10.55;8.23;;;2.30;99.90;;;;;;4964583;28;19926;-65
2023/02/24 03:06:46;;;;;;;11.98;8.02;;;2.40;99.90;;;;;;4979275;28;20149;-65
2023/02/24 03:09:19;;;;;;;13.20;8.45;;;2.40;99.90;;;;;;4963643;28;20064;-65
2023/02/24 03:11:52;;;;;;;9.95;7.45;;;2.40;99.90;;;;;;4962455;28;20622;-66
2023/02/24 03:14:25;;;;;;;10.50;8.23;;;2.40;99.90;;;;;;4964314;28;20137;-65
2023/02/24 03:16:54;;;;;;;10.57;8.20;;;2.40;99.90;;;;;;4967440;28;20061;-65
2023/02/24 03:19:36;;;;;;;10.65;8.50;;;2.40;99.90;;;;;;4974744;28;20039;-65
2023/02/24 03:22:11;;;;;;;15.15;8.77;;;2.40;99.90;;;;;;4956446;28;20057;-66
2023/02/24 03:24:40;;;;;;;13.57;9.48;;;2.40;99.90;;;;;;4962861;28;20480;-64
2023/02/24 03:27:40;;;;;;;12.85;9.93;;;2.40;99.90;;;;;;4958633;28;20055;-65
2023/02/24 03:30:34;;;;;;;11.80;9.20;;;2.40;99.90;;;;;;4960690;28;20134;-65
2023/02/24 03:33:08;;;;;;;10.98;8.93;;;2.40;99.90;;;;;;4962769;28;20051;-66
2023/02/24 03:35:38;;;;;;;14.30;10.52;;;2.40;99.90;;;;;;4962536;28;20060;-65
2023/02/24 03:38:08;;;;;;;13.23;9.43;;;2.40;99.90;;;;;;4963483;28;20070;-65
2023/02/24 03:40:42;;;;;;;11.15;8.13;;;2.40;99.90;;;;;;4957216;28;20061;-65
2023/02/24 03:43:34;;;;;;;11.38;8.63;;;2.40;99.90;;;;;;4961818;28;20051;-66
2023/02/24 03:46:04;;;;;;;10.85;8.25;;;2.30;99.90;;;;;;4962593;28;20081;-67
2023/02/24 03:48:36;;;;;;;11.27;9.00;;;2.40;99.90;;;;;;4963710;28;20039;-63
2023/02/24 03:51:03;;;;;;;12.82;9.13;;;2.40;99.90;;;;;;4942600;28;20050;-64
2023/02/24 03:53:58;;;;;;;12.13;9.27;;;2.30;99.90;;;;;;4976455;28;20109;-65
2023/02/24 03:56:56;;;;;;;13.32;10.82;;;2.30;99.90;;;;;;4963849;28;20502;-64
2023/02/24 03:59:46;;;;;;;13.98;10.15;;;2.30;99.90;;;;;;4955643;28;20055;-64
2023/02/24 04:02:22;;;;;;;15.00;9.90;;;2.30;99.90;;;;;;4959288;28;20536;-64
2023/02/24 04:05:19;;;;;;;12.25;9.75;;;2.30;99.90;;;;;;4963350;28;20118;-63
2023/02/24 04:08:07;;;;;;;11.35;8.93;;;2.30;99.90;;;;;;4956669;28;20081;-64
2023/02/24 04:11:04;;;;;;;11.52;9.18;;;2.30;99.90;;;;;;4955811;28;20047;-64
2023/02/24 04:13:42;;;;;;;13.23;10.45;;;2.30;99.90;;;;;;4958006;28;20605;-64
2023/02/24 04:16:35;;;;;;;11.77;9.43;;;2.30;99.90;;;;;;4961737;28;20117;-65
2023/02/24 04:19:16;;;;;;;14.18;10.70;;;2.30;99.90;;;;;;4976085;28;20046;-64
2023/02/24 04:21:47;;;;;;;16.45;11.20;;;2.30;99.90;;;;;;4974334;28;20043;-65
2023/02/24 04:24:24;;;;;;;15.10;11.52;;;2.30;99.90;;;;;;4978217;28;20066;-64
2023/02/24 04:26:57;;;;;;;12.25;9.43;;;2.30;99.90;;;;;;4962584;28;20078;-63
2023/02/24 04:29:34;;;;;;;13.27;10.50;;;2.30;99.90;;;;;;4960395;28;20050;-65
2023/02/24 04:32:07;;;;;;;11.57;8.30;;;2.30;99.90;;;;;;4962433;28;20050;-64
2023/02/24 04:34:39;;;;;;;12.68;9.65;;;2.30;99.90;;;;;;4963011;28;20070;-66
2023/02/24 04:37:06;;;;;;;15.15;9.80;;;2.30;99.90;;;;;;4978346;28;20055;-66
2023/02/24 04:39:37;;;;;;;14.90;10.65;;;2.30;99.90;;;;;;4966530;28;20125;-64
2023/02/24 04:42:08;;;;;;;16.23;10.02;;;2.30;99.90;;;;;;4964814;28;20050;-65
2023/02/24 04:44:35;;;;;;;13.52;9.80;;;2.30;99.90;;;;;;4967636;28;20062;-64
2023/02/24 04:47:02;;;;;;;13.65;9.77;;;2.30;99.90;;;;;;4966698;28;20063;-64
2023/02/24 04:49:29;;;;;;;15.30;9.77;;;2.30;99.90;;;;;;4964434;28;20055;-64
2023/02/24 04:51:56;;;;;;;12.93;9.00;;;2.30;99.90;;;;;;4967166;28;20047;-64
2023/02/24 04:54:23;;;;;;;12.30;9.15;;;2.30;99.90;;;;;;4968502;28;20464;-64
2023/02/24 04:56:50;;;;;;;14.77;10.27;;;2.30;99.90;;;;;;4965627;28;20129;-64
2023/02/24 04:59:19;;;;;;;14.15;10.77;;;2.30;99.90;;;;;;4966958;28;20074;-65
2023/02/24 05:01:50;;;;;;;15.32;10.85;;;2.30;99.90;;;;;;4968924;28;20042;-64
2023/02/24 05:04:17;;;;;;;12.65;9.93;;;2.30;99.90;;;;;;4968513;28;20122;-64
2023/02/24 05:06:45;;;;;;;17.40;11.73;;;2.30;99.90;;;;;;4967742;28;20050;-65
2023/02/24 05:09:18;;;;;;;14.10;11.20;;;2.30;99.90;;;;;;4966109;28;20043;-63
2023/02/24 05:11:50;;;;;;;15.15;10.77;;;2.30;99.90;;;;;;4967792;28;20070;-64
2023/02/24 05:14:19;;;;;;;17.90;11.30;;;2.30;99.90;;;;;;4967634;28;20051;-65
2023/02/24 05:16:48;;;;;;;15.25;11.48;;;2.30;99.90;;;;;;4966173;28;20512;-64
2023/02/24 05:22:03;;;;;;;18.88;13.02;;;2.30;99.90;;;;;;4964426;28;20106;-65
2023/02/24 05:24:30;;;;;;;17.23;11.68;;;2.30;99.90;;;;;;4968580;28;20136;-64
2023/02/24 05:26:58;;;;;;;19.83;13.00;;;2.30;99.90;;;;;;4967617;28;20105;-64
2023/02/24 05:29:34;;;;;;;16.73;11.85;;;2.30;99.90;;;;;;4965808;28;20054;-63
2023/02/24 05:32:03;;;;;;;17.55;11.63;;;2.30;99.90;;;;;;4967594;28;20485;-64
2023/02/24 05:34:32;;;;;;;17.73;11.27;;;2.30;99.90;;;;;;4968329;28;20065;-64
2023/02/24 05:37:00;;;;;;;18.05;12.15;;;2.30;99.90;;;;;;4965247;28;20074;-65
2023/02/24 05:39:28;;;;;;;14.63;10.07;;;2.30;99.90;;;;;;4963015;28;20042;-64
2023/02/24 05:41:55;;;;;;;15.77;10.23;;;2.20;99.90;;;;;;4967164;28;20483;-64
2023/02/24 05:44:24;;;;;;;11.55;8.27;;;2.20;99.90;;;;;;4966668;28;20116;-65
2023/02/24 05:46:57;;;;;;;12.20;8.25;;;2.20;99.90;;;;;;4966517;28;20063;-64
2023/02/24 05:49:30;;;;;;;9.65;7.47;;;2.20;99.90;;;;;;4965135;28;20051;-64
2023/02/24 05:51:59;;;;;;;9.82;8.02;;;2.20;99.90;;;;;;4965567;28;20053;-64
2023/02/24 05:54:39;;;;;;;7.70;6.63;;;2.20;99.90;;;;;;4967130;28;20062;-64
2023/02/24 05:57:12;;;;;;;9.60;7.43;;;2.20;99.90;;;;;;4967047;28;20046;-64
2023/02/24 05:59:40;;;;;;;10.32;7.18;;;2.20;99.90;;;;;;4964141;28;20054;-70
2023/02/24 06:02:10;;;;;;;8.38;6.38;;;2.20;99.90;;;;;;4967430;28;20074;-64
2023/02/24 06:04:44;;;;;;;10.07;7.05;;;2.20;99.90;;;;;;4964646;28;20054;-66
2023/02/24 06:07:17;;;;;;;12.13;7.13;;;2.10;99.90;;;;;;4963964;28;20047;-66
2023/02/24 06:09:48;;;;;;;7.07;6.18;;;2.20;99.90;;;;;;4968111;28;20141;-64
2023/02/24 06:12:17;;;;;;;9.00;6.25;;;2.10;99.90;;;;;;4963325;28;20102;-65
2023/02/24 06:14:44;;;;;;;8.88;6.38;;;2.10;99.90;;;;;;4966938;28;20047;-65
2023/02/24 06:17:13;;;;;;;7.97;7.07;;;2.10;99.90;;;;;;4965052;28;20178;-65
2023/02/24 06:19:42;;;;;;;9.60;6.67;;;2.10;99.90;;;;;;4967979;28;20085;-64
2023/02/24 06:22:13;;;;;;;9.77;7.80;;;2.10;99.90;;;;;;4963707;28;20285;-64
2023/02/24 06:24:48;;;;;;;10.65;7.38;;;2.10;99.90;;;;;;4965035;28;20051;-65
2023/02/24 06:27:18;;;;;;;10.80;7.68;;;2.10;99.90;;;;;;4963492;28;20118;-65
2023/02/24 06:29:49;;;;;;;7.25;6.13;;;2.10;99.90;;;;;;4964517;28;20054;-64
2023/02/24 06:32:18;;;;;;;11.18;7.68;;;2.10;99.90;;;;;;4965703;28;20688;-66
2023/02/24 06:34:45;;;;;;;10.13;7.60;;;2.10;99.90;;;;;;4964025;28;20050;-66
2023/02/24 06:37:13;;;;;;;13.30;8.75;;;2.10;99.90;;;;;;4963050;28;20046;-65
2023/02/24 06:39:41;;;;;;;11.85;8.65;;;2.10;99.90;;;;;;4966431;28;20055;-64
2023/02/24 06:42:09;;;;;;;14.93;9.07;;;2.10;99.90;;;;;;4966404;28;20070;-64
2023/02/24 06:44:38;;;;;;;15.65;10.60;;;2.10;99.90;;;;;;4966069;28;20404;-66
2023/02/24 06:47:06;;;;;;;14.35;10.48;;;2.10;99.90;;;;;;4960238;28;20047;-64
2023/02/24 06:49:33;;;;;;;14.50;10.40;;;2.10;99.90;;;;;;4962296;28;20051;-65
2023/02/24 06:52:00;;;;;;;15.98;10.65;;;2.20;99.90;;;;;;4964001;28;20046;-66
2023/02/24 06:54:29;;;;;;;18.38;12.02;;;2.20;99.90;;;;;;4961137;28;21051;-66
2023/02/24 06:56:58;;;;;;;18.45;11.98;;;2.20;99.90;;;;;;4963575;28;20073;-64
2023/02/24 06:59:28;;;;;;;17.88;11.32;;;2.20;99.90;;;;;;4962608;28;20082;-64
2023/02/24 07:01:56;;;;;;;15.20;9.18;;;2.20;99.90;;;;;;4960293;28;20051;-65
2023/02/24 07:04:23;;;;;;;16.33;10.65;;;2.20;99.90;;;;;;4963510;28;20051;-66
2023/02/24 07:07:01;;;;;;;19.52;11.85;;;2.20;99.90;;;;;;4961919;28;20491;-65
2023/02/24 07:09:30;;;;;;;16.67;11.18;;;2.20;99.90;;;;;;4963451;28;20111;-64
2023/02/24 07:12:01;;;;;;;15.68;10.68;;;2.20;99.90;;;;;;4962820;28;20074;-66
2023/02/24 07:14:30;;;;;;;20.10;11.90;;;2.20;99.90;;;;;;4964444;28;20065;-66
2023/02/24 07:16:58;;;;;;;21.67;12.80;;;2.20;99.90;;;;;;4962490;28;20691;-65
2023/02/24 07:19:28;;;;;;;18.95;12.30;;;2.20;99.90;;;;;;4959737;28;20505;-64
2023/02/24 07:22:02;;;;;;;20.20;12.10;;;2.20;99.90;;;;;;4961481;28;20138;-65
2023/02/24 07:24:32;;;;;;;18.92;13.18;;;2.20;99.90;;;;;;4965083;28;20117;-66
2023/02/24 07:27:20;;;;;;;20.92;13.38;;;2.30;99.90;;;;;;4965162;28;20059;-65
2023/02/24 07:29:50;;;;;;;21.45;12.93;;;2.20;99.90;;;;;;4961394;28;20058;-65
2023/02/24 07:32:24;;;;;;;18.30;11.82;;;2.30;99.90;;;;;;4962357;28;20050;-65
2023/02/24 07:34:51;;;;;;;18.35;11.07;;;2.30;99.90;;;;;;4965376;28;20051;-65
2023/02/24 07:37:19;;;;;;;20.95;13.68;;;2.30;99.90;;;;;;4960305;28;20042;-65
2023/02/24 07:39:46;;;;;;;19.33;12.82;;;2.30;99.90;;;;;;4965464;28;20465;-64
2023/02/24 07:42:13;;;;;;;17.58;12.10;;;2.40;99.90;;;;;;4965451;28;20053;-65
2023/02/24 07:44:45;;;;;;;19.42;12.52;;;2.40;99.90;;;;;;4975498;28;20054;-65
2023/02/24 07:47:14;;;;;;;22.10;14.00;;;2.40;99.90;;;;;;4962912;28;20477;-64
2023/02/24 07:49:41;;;;;;;18.42;12.60;;;2.40;99.90;;;;;;4965593;28;20080;-64
2023/02/24 07:52:10;;;;;;;18.90;11.95;;;2.40;99.90;;;;;;4962300;28;20145;-64
2023/02/24 07:54:38;;;;;;;20.10;13.45;;;2.40;99.90;;;;;;4965646;28;20117;-65
2023/02/24 07:57:12;;;;;;;21.27;13.52;;;2.50;99.90;;;;;;4962703;28;20047;-65
2023/02/24 07:59:45;;;;;;;21.33;13.13;;;2.50;99.90;;;;;;4965808;28;20050;-66
2023/02/24 08:02:14;;;;;;;21.60;14.70;;;2.50;99.90;;;;;;4962774;28;20054;-65
2023/02/24 08:04:48;;;;;;;22.48;14.10;;;2.50;99.90;;;;;;4964415;28;20512;-64
2023/02/24 08:07:29;;;;;;;21.13;12.98;;;2.50;99.90;;;;;;4959744;28;20066;-66
2023/02/24 08:10:08;;;;;;;22.58;13.63;;;2.50;99.90;;;;;;4963494;28;20089;-65
2023/02/24 08:12:41;;;;;;;21.40;12.88;;;2.50;99.90;;;;;;4962712;28;20481;-65
2023/02/24 08:15:15;;;;;;;20.60;12.55;;;2.50;99.90;;;;;;4964780;28;20047;-66
2023/02/24 08:17:46;;;;;;;17.90;11.68;;;2.60;99.90;;;;;;4962346;28;20545;-65
2023/02/24 08:22:45;;;;;;;16.10;10.88;;;2.60;99.90;;;;;;4962893;28;20051;-66
2023/02/24 08:25:17;;;;;;;14.93;10.65;;;2.70;99.90;;;;;;4963330;28;20079;-65
2023/02/24 08:27:54;;;;;;;15.93;10.23;;;2.70;99.90;;;;;;4960908;28;20050;-65
2023/02/24 08:30:39;;;;;;;14.55;10.82;;;2.80;99.90;;;;;;4965053;28;20050;-65
2023/02/24 08:33:09;;;;;;;10.68;7.78;;;2.80;99.90;;;;;;4964422;28;20047;-65
2023/02/24 08:35:43;;;;;;;12.13;8.77;;;2.80;99.90;;;;;;4962446;28;20051;-64
2023/02/24 08:38:14;;;;;;;12.82;7.97;;;2.90;99.90;;;;;;4962796;28;20604;-65
2023/02/24 08:40:51;;;;;;;7.88;5.60;;;2.90;99.90;;;;;;4965368;28;20109;-65
2023/02/24 08:43:31;;;;;;;5.90;4.55;;;3.00;99.90;;;;;;4962731;28;20070;-65
2023/02/24 08:46:04;;;;;;;;;;;3.20;99.90;;;;;;4964595;28;20597;-65
2023/02/24 08:48:56;;;;;;;6.75;4.95;;;3.30;99.90;;;;;;4961787;28;19926;-65
2023/02/24 08:51:33;;;;;;;7.22;4.72;;;3.30;99.90;;;;;;4959342;28;20054;-64
2023/02/24 08:54:09;;;;;;;6.57;4.70;;;3.30;99.90;;;;;;4961239;28;20093;-65
2023/02/24 08:56:42;;;;;;;7.38;5.38;;;3.30;99.90;;;;;;4963977;28;20476;-65
2023/02/24 08:59:27;;;;;;;8.05;5.53;;;3.30;99.90;;;;;;4971681;28;20093;-65
2023/02/24 09:02:17;;;;;;;7.55;5.40;;;3.30;99.90;;;;;;4963112;28;20093;-65
2023/02/24 09:04:51;;;;;;;5.15;4.65;;;3.30;99.90;;;;;;4965207;28;20644;-64
2023/02/24 09:07:22;;;;;;;5.78;4.80;;;3.30;99.90;;;;;;4957468;28;20105;-65
2023/02/24 09:09:55;;;;;;;5.07;4.15;;;3.20;99.90;;;;;;4961583;28;20054;-65
2023/02/24 09:12:24;;;;;;;6.55;5.45;;;3.30;99.90;;;;;;4962888;28;20106;-65
2023/02/24 09:14:57;;;;;;;8.25;7.35;;;3.30;99.90;;;;;;4962675;28;20051;-65
2023/02/24 09:18:13;;;;;;;9.50;8.55;;;3.30;99.90;;;;;;4961727;28;20105;-65
2023/02/24 09:23:06;;;;;;;8.27;6.95;;;3.20;99.90;;;;;;4960965;28;20055;-65
2023/02/24 09:25:39;;;;;;;8.80;7.85;;;3.20;99.90;;;;;;4965146;28;20067;-64
2023/02/24 09:28:17;;;;;;;9.90;8.13;;;3.20;99.90;;;;;;4963161;28;20083;-65
2023/02/24 09:30:57;;;;;;;8.73;7.57;;;3.30;99.90;;;;;;4966623;28;20051;-64
2023/02/24 09:33:27;;;;;;;9.95;8.63;;;3.30;99.90;;;;;;4963816;28;20138;-64
2023/02/24 09:36:09;;;;;;;10.15;8.68;;;3.40;99.90;;;;;;4964301;28;20106;-68
2023/02/24 09:41:52;;;;;;;9.00;7.70;;;3.40;99.90;;;;;;4962208;28;20186;-64
2023/02/24 09:44:35;;;;;;;7.30;6.57;;;3.40;99.90;;;;;;4962786;28;20047;-65
2023/02/24 09:47:08;;;;;;;7.35;6.35;;;3.40;99.90;;;;;;4964730;28;20058;-64
2023/02/24 09:49:47;;;;;;;6.35;5.63;;;3.30;99.90;;;;;;4963303;28;20061;-65
2023/02/24 09:52:17;;;;;;;6.45;5.43;;;3.30;99.90;;;;;;4963485;28;20090;-64
2023/02/24 10:01:19;;;;;;;5.25;4.75;;;3.40;99.90;;;;;;4963738;28;20570;-64
2023/02/24 10:04:03;;;;;;;4.07;3.67;;;3.40;99.90;;;;;;4960606;28;20057;-65
2023/02/24 10:06:47;;;;;;;5.18;3.83;;;3.40;99.90;;;;;;4964999;28;20249;-65
2023/02/24 10:09:41;;;;;;;5.32;4.60;;;3.40;99.90;;;;;;4963782;28;20477;-66
2023/02/24 10:12:17;;;;;;;6.55;5.75;;;3.40;99.90;;;;;;4964514;28;20051;-65
2023/02/24 10:17:55;;;;;;;6.60;5.22;;;3.50;99.90;;;;;;4965133;28;20157;-64
2023/02/24 10:20:48;;;;;;;4.95;4.35;;;3.50;99.90;;;;;;4964683;28;20042;-64
2023/02/24 10:23:31;;;;;;;4.15;3.67;;;3.60;99.90;;;;;;4961802;28;20062;-64
2023/02/24 10:26:06;;;;;;;5.82;4.38;;;3.50;99.90;;;;;;4966704;28;20508;-64
2023/02/24 10:28:42;;;;;;;6.32;4.53;;;3.50;99.90;;;;;;4963034;28;20058;-64
2023/02/24 10:31:24;;;;;;;5.03;3.95;;;3.50;99.90;;;;;;4967075;28;20055;-65
2023/02/24 10:34:00;;;;;;;4.60;4.18;;;3.40;99.90;;;;;;4964786;28;20050;-64
2023/02/24 10:36:34;;;;;;;4.00;3.60;;;3.30;99.90;;;;;;4964848;28;20118;-66
2023/02/24 10:39:26;;;;;;;3.90;3.05;;;3.30;99.90;;;;;;4965731;28;20053;-65
2023/02/24 10:42:14;;;;;;;3.55;3.25;;;3.20;99.90;;;;;;4963292;28;20055;-64
2023/02/24 10:44:53;;;;;;;5.10;3.92;;;3.20;99.90;;;;;;4964540;28;20058;-65
2023/02/24 10:47:30;;;;;;;3.88;3.38;;;3.20;99.90;;;;;;4962263;28;20145;-65
2023/02/24 10:50:03;;;;;;;3.78;2.92;;;3.20;99.90;;;;;;4965601;28;20141;-66
2023/02/24 10:58:36;;;;;;;4.13;3.42;;;3.10;99.90;;;;;;4964574;28;20141;-65
2023/02/24 11:01:19;;;;;;;4.20;3.70;;;3.10;99.90;;;;;;4964132;28;20055;-64
2023/02/24 11:04:11;;;;;;;4.05;3.67;;;3.00;99.90;;;;;;4964142;28;20053;-64
2023/02/24 11:17:57;;;;;;;4.45;4.05;;;3.00;99.90;;;;;;4964049;28;20061;-64
2023/02/24 11:20:45;;;;;;;3.83;3.35;;;3.00;99.90;;;;;;4968050;28;20050;-64
2023/02/24 11:23:21;;;;;;;3.10;2.65;;;2.90;99.90;;;;;;4961327;28;20061;-65
2023/02/24 11:25:57;;;;;;;3.28;2.45;;;2.90;99.90;;;;;;4965912;28;20062;-64
2023/02/24 11:28:34;;;;;;;3.08;2.78;;;3.00;99.90;;;;;;4962933;28;20523;-66
2023/02/24 11:31:34;;;;;;;4.35;2.75;;;3.00;99.90;;;;;;4964128;28;20047;-65
2023/02/24 11:34:27;;;;;;;3.30;2.88;;;3.10;99.90;;;;;;4962981;28;20065;-66
2023/02/24 11:37:07;;;;;;;5.07;4.38;;;3.10;99.90;;;;;;4958703;28;20999;-66
2023/02/24 11:39:57;;;;;;;3.83;3.45;;;3.20;99.90;;;;;;4961247;28;20050;-64
2023/02/24 11:42:44;;;;;;;3.83;3.33;;;3.20;99.90;;;;;;4964437;28;20073;-64
2023/02/24 11:45:24;;;;;;;3.88;3.03;;;3.20;99.90;;;;;;4963135;28;20051;-64
2023/02/24 11:47:56;;;;;;;3.80;3.35;;;3.20;99.90;;;;;;4965986;28;20054;-65
2023/02/24 11:50:38;;;;;;;3.97;3.30;;;3.20;99.90;;;;;;4964817;28;20133;-64
2023/02/24 11:53:19;;;;;;;3.35;3.03;;;3.20;99.90;;;;;;4961588;28;20445;-66
2023/02/24 11:55:57;;;;;;;4.65;3.40;;;3.10;99.90;;;;;;4964958;28;20676;-64
2023/02/24 11:58:51;;;;;;;4.75;3.47;;;3.10;99.90;;;;;;4963490;28;21269;-64
2023/02/24 12:01:24;;;;;;;4.05;3.65;;;3.10;99.90;;;;;;4962785;28;20141;-65
2023/02/24 12:04:23;;;;;;;3.75;3.22;;;3.10;99.90;;;;;;4965421;28;20102;-66
2023/02/24 12:07:36;;;;;;;4.10;3.60;;;3.20;99.90;;;;;;4957706;28;20518;-64
2023/02/24 12:10:09;;;;;;;3.13;2.80;;;3.30;99.90;;;;;;4902548;29;20076;-65
2023/02/24 12:13:07;;;;;;;3.33;3.05;;;3.20;99.90;;;;;;4914597;29;20055;-64
2023/02/24 12:15:55;;;;;;;4.85;4.38;;;3.20;99.90;;;;;;4938025;28;20062;-65
2023/02/24 12:18:34;;;;;;;4.95;4.15;;;3.30;99.90;;;;;;4963014;28;20054;-64
2023/02/24 12:21:10;;;;;;;4.72;4.22;;;3.30;99.90;;;;;;4963280;28;20045;-66
2023/02/24 12:23:40;;;;;;;5.05;4.10;;;3.30;99.90;;;;;;4960833;28;20062;-64
2023/02/24 12:26:29;;;;;;;4.85;3.90;;;3.40;99.90;;;;;;4967091;28;20481;-64
2023/02/24 12:29:18;;;;;;;4.55;3.88;;;3.40;99.90;;;;;;4962209;28;20057;-65
2023/02/24 12:32:15;;;;;;;4.85;3.35;;;3.40;99.90;;;;;;4962261;28;20153;-68
2023/02/24 12:34:54;;;;;;;3.17;2.88;;;3.40;99.90;;;;;;4964111;28;20050;-64
2023/02/24 12:37:36;;;;;;;4.95;3.30;;;3.40;99.90;;;;;;4960585;28;20093;-64
2023/02/24 12:40:24;;;;;;;2.85;2.60;;;3.30;99.90;;;;;;4962928;28;20472;-65
2023/02/24 12:42:53;;;;;;;4.47;3.00;;;3.30;99.90;;;;;;4964084;28;20051;-65
2023/02/24 12:45:52;;;;;;;3.40;3.00;;;3.30;99.90;;;;;;4962372;28;20072;-64
2023/02/24 12:48:46;;;;;;;4.40;3.63;;;3.30;99.90;;;;;;4963951;28;20496;-65
2023/02/24 12:51:32;;;;;;;4.05;3.75;;;3.30;99.90;;;;;;4960833;28;20141;-64
2023/02/24 12:54:18;;;;;;;3.08;2.75;;;3.30;99.90;;;;;;4959914;28;20051;-64
2023/02/24 12:56:59;;;;;;;4.03;3.45;;;3.30;99.90;;;;;;4962793;28;20496;-64
2023/02/24 12:59:30;;;;;;;6.75;4.43;;;3.30;99.90;;;;;;4961836;28;20541;-64
2023/02/24 13:02:05;;;;;;;6.38;4.68;;;3.20;99.90;;;;;;4968705;28;20391;-64
2023/02/24 13:04:54;;;;;;;4.13;3.45;;;3.20;99.90;;;;;;4967602;28;20496;-65
2023/02/24 13:07:45;;;;;;;4.40;3.92;;;3.10;99.90;;;;;;4961753;28;20596;-66
2023/02/24 13:10:49;;;;;;;3.80;3.40;;;3.10;99.90;;;;;;4974765;28;20460;-65
2023/02/24 13:13:50;;;;;;;3.53;2.97;;;3.10;99.90;;;;;;4964141;28;20045;-65
2023/02/24 13:16:31;;;;;;;3.63;3.17;;;3.10;99.90;;;;;;4966281;28;20130;-64
2023/02/24 13:19:18;;;;;;;3.03;2.55;;;3.10;99.90;;;;;;4967003;28;20166;-64
2023/02/24 13:22:03;;;;;;;3.88;2.95;;;3.00;99.90;;;;;;4965921;28;20138;-65
2023/02/24 13:24:31;;;;;;;3.80;2.42;;;3.00;99.90;;;;;;4967264;28;20149;-65
2023/02/24 13:27:05;;;;;;;2.58;2.13;;;3.00;99.90;;;;;;4967106;28;20045;-65
2023/02/24 13:29:44;;;;;;;2.75;2.08;;;3.00;99.90;;;;;;4965286;28;20058;-65
2023/02/24 13:32:28;;;;;;;3.42;2.97;;;3.00;99.90;;;;;;4967268;28;21180;-64
2023/02/24 13:35:00;;;;;;;2.42;2.22;;;3.00;99.90;;;;;;4965453;28;20082;-64
2023/02/24 13:37:35;;;;;;;3.03;2.28;;;3.00;99.90;;;;;;4963480;28;20105;-65
2023/02/24 13:40:21;;;;;;;2.10;1.98;;;2.90;99.90;;;;;;4967644;28;20138;-65
2023/02/24 13:42:59;;;;;;;2.47;2.28;;;2.90;99.90;;;;;;4967291;28;20046;-65
2023/02/24 13:45:40;;;;;;;4.38;2.22;;;2.90;99.90;;;;;;4966966;28;20055;-64
2023/02/24 13:48:36;;;;;;;2.90;2.25;;;2.90;99.90;;;;;;4964256;28;20134;-64
2023/02/24 13:51:34;;;;;;;2.25;1.80;;;2.90;99.90;;;;;;4966512;28;20097;-64
2023/02/24 13:54:10;;;;;;;2.30;1.63;;;2.80;99.90;;;;;;4960397;28;20469;-65
2023/02/24 13:57:00;;;;;;;2.85;2.17;;;2.80;99.90;;;;;;4966404;28;20157;-63
2023/02/24 13:59:48;;;;;;;2.53;2.25;;;2.80;99.90;;;;;;4961781;28;20051;-64
2023/02/24 14:02:21;;;;;;;2.58;2.17;;;2.80;99.90;;;;;;4965277;28;20053;-64
2023/02/24 14:04:54;;;;;;;3.10;2.45;;;2.80;99.90;;;;;;4966244;28;20054;-65
2023/02/24 14:07:29;;;;;;;3.58;2.42;;;2.80;99.90;;;;;;4961524;28;20054;-66
2023/02/24 14:10:13;;;;;;;2.35;2.15;;;2.90;99.90;;;;;;4967025;28;20476;-64
2023/02/24 14:12:43;;;;;;;3.80;1.80;;;2.80;99.90;;;;;;4962515;28;20051;-64
2023/02/24 14:15:26;;;;;;;2.58;1.92;;;2.80;99.90;;;;;;4967279;28;20105;-66
2023/02/24 14:17:56;;;;;;;2.65;2.45;;;2.80;99.90;;;;;;4964010;28;20377;-64